createdAt,value
2019-06-10T00:00:24.224Z,17.40
2019-06-10T00:03:27.676Z,17.40
2019-06-10T00:06:31.241Z,17.40
2019-06-10T00:09:34.769Z,17.40
2019-06-10T00:12:38.326Z,17.30
2019-06-10T00:15:41.856Z,17.30
2019-06-10T00:18:45.949Z,17.30
2019-06-10T00:21:50.949Z,17.30
2019-06-10T00:24:54.582Z,17.30
2019-06-10T00:27:58.104Z,17.30
2019-06-10T00:31:03.685Z,17.30
2019-06-10T00:34:07.932Z,17.10
2019-06-10T00:37:14.774Z,17.00
2019-06-10T00:40:17.389Z,17.00
2019-06-10T00:43:21.442Z,16.90
2019-06-10T00:46:25.104Z,16.80
2019-06-10T00:49:28.584Z,16.80
2019-06-10T00:52:32.049Z,16.70
2019-06-10T00:55:35.549Z,16.80
2019-06-10T00:58:40.837Z,16.80
2019-06-10T01:01:44.292Z,16.80
2019-06-10T01:04:47.761Z,16.80
2019-06-10T01:07:51.254Z,16.70
2019-06-10T01:10:54.710Z,16.60
2019-06-10T01:13:58.276Z,16.60
2019-06-10T01:17:01.823Z,16.50
2019-06-10T01:20:10.696Z,16.50
2019-06-10T01:23:15.643Z,16.40
2019-06-10T01:26:21.512Z,16.30
2019-06-10T01:29:24.529Z,16.30
2019-06-10T01:32:27.984Z,16.30
2019-06-10T01:35:31.461Z,16.30
2019-06-10T01:38:34.941Z,16.30
2019-06-10T01:41:40.801Z,16.30
2019-06-10T01:44:43.740Z,16.30
2019-06-10T01:47:47.226Z,16.40
2019-06-10T01:50:51.254Z,16.30
2019-06-10T01:53:54.942Z,16.30
2019-06-10T01:56:58.437Z,16.40
2019-06-10T02:00:08.954Z,16.40
2019-06-10T02:03:08.373Z,16.30
2019-06-10T02:06:16.027Z,16.40
2019-06-10T02:09:18.800Z,16.40
2019-06-10T02:12:24.109Z,16.40
2019-06-10T02:15:28.166Z,16.50
2019-06-10T02:18:32.119Z,16.60
2019-06-10T02:21:35.817Z,16.60
2019-06-10T02:24:41.536Z,16.60
2019-06-10T02:27:44.473Z,16.60
2019-06-10T02:30:51.884Z,16.70
2019-06-10T02:33:53.202Z,16.60
2019-06-10T02:36:57.007Z,16.70
2019-06-10T02:40:04.077Z,16.70
2019-06-10T02:43:06.187Z,16.70
2019-06-10T02:46:13.112Z,16.70
2019-06-10T02:49:30.060Z,16.70
2019-06-10T02:52:24.672Z,16.70
2019-06-10T02:55:30.714Z,16.70
2019-06-10T02:58:37.565Z,16.70
2019-06-10T03:01:38.072Z,16.70
2019-06-10T03:04:43.360Z,16.70
2019-06-10T03:07:46.143Z,16.70
2019-06-10T03:10:49.621Z,16.70
2019-06-10T03:13:53.191Z,16.70
2019-06-10T03:16:58.436Z,16.70
2019-06-10T03:20:02.335Z,16.60
2019-06-10T03:23:06.051Z,16.60
2019-06-10T03:26:09.505Z,16.60
2019-06-10T03:29:13.127Z,16.60
2019-06-10T03:32:21.486Z,16.70
2019-06-10T03:35:24.221Z,16.70
2019-06-10T03:38:28.300Z,16.70
2019-06-10T03:41:32.327Z,16.70
2019-06-10T03:44:35.982Z,16.70
2019-06-10T03:47:39.432Z,16.70
2019-06-10T03:50:43.261Z,16.80
2019-06-10T03:53:46.712Z,16.80
2019-06-10T03:56:52.074Z,16.80
2019-06-10T03:59:55.386Z,16.90
2019-06-10T04:02:58.912Z,16.80
2019-06-10T04:06:02.768Z,16.80
2019-06-10T04:09:06.741Z,16.90
2019-06-10T04:12:12.447Z,16.90
2019-06-10T04:15:17.511Z,16.90
2019-06-10T04:18:22.523Z,16.90
2019-06-10T04:21:27.229Z,17.00
2019-06-10T04:24:32.680Z,17.10
2019-06-10T04:27:36.323Z,17.00
2019-06-10T04:30:39.803Z,17.00
2019-06-10T04:33:43.305Z,16.90
2019-06-10T04:36:46.772Z,16.90
2019-06-10T04:39:50.262Z,16.90
2019-06-10T04:42:53.720Z,17.20
2019-06-10T04:45:57.208Z,17.40
2019-06-10T04:49:02.739Z,17.70
2019-06-10T04:52:06.049Z,17.80
2019-06-10T04:55:09.708Z,18.00
2019-06-10T04:58:13.203Z,18.10
2019-06-10T05:01:16.691Z,18.10
2019-06-10T05:04:21.631Z,18.10
2019-06-10T05:07:27.707Z,18.00
2019-06-10T05:10:32.975Z,18.10
2019-06-10T05:13:35.745Z,18.00
2019-06-10T05:16:39.244Z,18.00
2019-06-10T05:19:42.894Z,18.10
2019-06-10T05:22:46.571Z,18.10
2019-06-10T05:25:52.261Z,18.30
2019-06-10T05:28:55.249Z,18.50
2019-06-10T05:31:58.709Z,18.80
2019-06-10T05:35:03.460Z,19.00
2019-06-10T05:38:07.256Z,19.20
2019-06-10T05:41:13.091Z,19.40
2019-06-10T05:44:15.968Z,19.60
2019-06-10T05:47:19.430Z,19.90
2019-06-10T05:50:24.063Z,20.60
2019-06-10T05:53:29.181Z,22.70
2019-06-10T05:56:35.155Z,24.40
2019-06-10T05:59:38.044Z,26.20
2019-06-10T06:02:43.286Z,28.50
2019-06-10T06:05:47.005Z,30.20
2019-06-10T06:08:50.460Z,31.70
2019-06-10T06:11:53.949Z,33.00
2019-06-10T06:14:57.402Z,33.60
2019-06-10T06:18:07.270Z,34.10
2019-06-10T06:21:22.330Z,34.60
2019-06-10T06:24:13.092Z,34.70
2019-06-10T06:27:16.679Z,34.60
2019-06-10T06:30:22.587Z,34.90
2019-06-10T06:33:25.604Z,35.30
2019-06-10T06:36:29.089Z,35.30
2019-06-10T06:39:35.041Z,35.60
2019-06-10T06:42:38.351Z,35.80
2019-06-10T06:45:42.806Z,35.60
2019-06-10T06:48:46.488Z,35.20
2019-06-10T06:51:56.112Z,35.10
2019-06-10T06:54:55.148Z,35.10
2019-06-10T06:57:58.625Z,35.10
2019-06-10T07:01:10.268Z,35.40
2019-06-10T07:04:07.361Z,35.80
2019-06-10T07:07:13.176Z,36.30
2019-06-10T07:10:16.824Z,36.10
2019-06-10T07:13:22.204Z,35.90
2019-06-10T07:16:25.517Z,36.10
2019-06-10T07:19:29.156Z,35.30
2019-06-10T07:22:35.308Z,33.80
2019-06-10T07:25:47.148Z,32.10
2019-06-10T07:28:49.069Z,30.40
2019-06-10T07:31:53.594Z,29.00
2019-06-10T07:34:57.400Z,28.10
2019-06-10T07:38:03.048Z,27.70
2019-06-10T07:41:06.069Z,27.50
2019-06-10T07:44:09.562Z,28.00
2019-06-10T07:47:13.108Z,29.80
2019-06-10T07:50:17.028Z,31.20
2019-06-10T07:53:22.235Z,31.30
2019-06-10T07:56:28.956Z,30.90
2019-06-10T07:59:32.248Z,30.70
2019-06-10T08:02:37.549Z,30.60
2019-06-10T08:05:44.483Z,30.30
2019-06-10T08:08:47.299Z,29.60
2019-06-10T08:11:53.158Z,29.40
2019-06-10T08:14:56.323Z,28.90
2019-06-10T08:17:59.985Z,28.50
2019-06-10T08:21:03.479Z,28.30
2019-06-10T08:24:07.060Z,28.30
2019-06-10T08:27:12.073Z,28.60
2019-06-10T08:30:23.037Z,28.60
2019-06-10T08:33:22.729Z,28.40
2019-06-10T08:36:26.538Z,28.10
2019-06-10T08:39:29.996Z,27.80
2019-06-10T08:42:33.472Z,27.70
2019-06-10T08:45:37.016Z,27.90
2019-06-10T08:48:43.860Z,28.30
2019-06-10T08:51:49.980Z,28.50
2019-06-10T08:54:54.285Z,28.60
2019-06-10T08:57:58.629Z,28.60
2019-06-10T09:01:02.628Z,28.60
2019-06-10T09:04:13.311Z,28.70
2019-06-10T09:07:17.104Z,28.80
2019-06-10T09:10:22.701Z,28.80
2019-06-10T09:13:26.280Z,28.90
2019-06-10T09:16:32.032Z,28.80
2019-06-10T09:19:56.252Z,28.60
2019-06-10T09:23:21.543Z,28.70
2019-06-10T09:26:14.502Z,28.80
2019-06-10T09:29:17.960Z,29.30
2019-06-10T09:32:23.444Z,29.80
2019-06-10T09:35:26.689Z,30.00
2019-06-10T09:38:33.117Z,29.80
2019-06-10T09:41:40.948Z,29.60
2019-06-10T09:44:45.931Z,29.10
2019-06-10T09:47:53.449Z,29.00
2019-06-10T09:50:58.596Z,28.60
2019-06-10T09:54:06.318Z,28.40
2019-06-10T09:57:13.100Z,28.00
2019-06-10T10:00:19.669Z,27.80
2019-06-10T10:03:24.054Z,27.60
2019-06-10T10:06:29.108Z,27.50
2019-06-10T10:09:36.974Z,27.30
2019-06-10T10:12:44.051Z,27.20
2019-06-10T10:15:45.607Z,27.10
2019-06-10T10:18:53.354Z,27.00
2019-06-10T10:21:58.594Z,27.00
2019-06-10T10:25:03.075Z,26.90
2019-06-10T10:28:06.954Z,26.80
2019-06-10T10:31:12.944Z,26.80
2019-06-10T10:34:15.620Z,26.90
2019-06-10T10:37:23.753Z,26.70
2019-06-10T10:40:27.653Z,26.80
2019-06-10T10:43:37.196Z,27.10
2019-06-10T10:46:42.735Z,27.30
2019-06-10T10:49:49.044Z,27.30
2019-06-10T10:52:53.862Z,27.30
2019-06-10T10:56:02.243Z,27.00
2019-06-10T10:59:05.588Z,27.00
2019-06-10T11:02:09.548Z,26.90
2019-06-10T11:05:19.372Z,26.80
2019-06-10T11:08:25.271Z,26.70
2019-06-10T11:11:29.304Z,26.50
2019-06-10T11:14:36.827Z,26.40
2019-06-10T11:21:15.251Z,25.90
2019-06-10T11:24:32.826Z,25.90
2019-06-10T11:27:24.260Z,26.00
2019-06-10T11:30:27.896Z,26.10
2019-06-10T11:33:32.851Z,26.10
2019-06-10T11:36:36.584Z,26.00
2019-06-10T11:39:40.205Z,25.80
2019-06-10T11:42:43.762Z,25.60
2019-06-10T11:45:52.387Z,25.60
2019-06-10T11:48:55.595Z,25.70
2019-06-10T11:51:59.582Z,25.90
2019-06-10T11:55:14.186Z,26.20
2019-06-10T11:58:09.485Z,26.30
2019-06-10T12:01:13.425Z,26.50
2019-06-10T12:04:17.101Z,26.50
2019-06-10T12:07:22.342Z,26.40
2019-06-10T12:10:26.264Z,26.20
2019-06-10T12:13:29.817Z,26.00
2019-06-10T12:17:15.727Z,26.00
2019-06-10T12:19:38.625Z,26.00
2019-06-10T12:22:42.459Z,26.40
2019-06-10T12:25:48.001Z,26.80
2019-06-10T12:28:54.620Z,27.10
2019-06-10T12:32:00.075Z,27.10
2019-06-10T12:35:05.256Z,27.00
2019-06-10T12:38:06.740Z,26.80
2019-06-10T12:41:13.544Z,26.70
2019-06-10T12:44:15.501Z,26.80
2019-06-10T12:47:18.956Z,26.90
2019-06-10T12:50:28.644Z,27.00
2019-06-10T12:53:32.642Z,27.00
2019-06-10T12:56:36.264Z,27.10
2019-06-10T12:59:39.897Z,27.10
2019-06-10T13:02:43.380Z,27.00
2019-06-10T13:05:47.106Z,27.00
2019-06-10T13:08:53.269Z,26.90
2019-06-10T13:11:57.859Z,26.90
2019-06-10T13:15:04.781Z,27.00
2019-06-10T13:18:09.614Z,26.80
2019-06-10T13:21:16.838Z,26.70
2019-06-10T13:24:17.524Z,26.70
2019-06-10T13:27:22.715Z,26.60
2019-06-10T13:30:26.420Z,26.70
2019-06-10T13:33:30.289Z,26.80
2019-06-10T13:36:33.760Z,26.80
2019-06-10T13:39:38.276Z,26.90
2019-06-10T13:42:42.374Z,26.80
2019-06-10T13:45:46.058Z,26.70
2019-06-10T13:48:52.162Z,26.80
2019-06-10T13:51:54.937Z,26.60
2019-06-10T13:54:58.693Z,26.50
2019-06-10T13:58:06.189Z,26.40
2019-06-10T14:01:12.967Z,26.40
2019-06-10T14:04:20.681Z,26.40
2019-06-10T14:07:17.955Z,26.20
2019-06-10T14:10:22.646Z,25.90
2019-06-10T14:13:26.389Z,25.80
2019-06-10T14:16:29.997Z,25.80
2019-06-10T14:19:33.477Z,25.90
2019-06-10T14:22:36.970Z,26.10
2019-06-10T14:25:42.394Z,26.30
2019-06-10T14:28:45.776Z,26.40
2019-06-10T14:31:49.259Z,26.30
2019-06-10T14:34:52.833Z,26.20
2019-06-10T14:37:56.320Z,26.00
2019-06-10T14:40:59.813Z,25.70
2019-06-10T14:44:04.538Z,25.50
2019-06-10T14:47:08.857Z,25.30
2019-06-10T14:50:17.242Z,25.20
2019-06-10T14:53:19.485Z,25.10
2019-06-10T14:56:23.571Z,25.10
2019-06-10T14:59:27.320Z,25.00
2019-06-10T15:02:33.302Z,24.90
2019-06-10T15:05:36.002Z,24.70
2019-06-10T15:08:39.462Z,24.70
2019-06-10T15:11:42.956Z,24.60
2019-06-10T15:14:46.490Z,24.60
2019-06-10T15:17:56.950Z,24.60
2019-06-10T15:21:06.266Z,24.70
2019-06-10T15:24:17.669Z,24.70
2019-06-10T15:27:29.704Z,24.60
2019-06-10T15:30:31.437Z,24.50
2019-06-10T15:33:33.677Z,24.50
2019-06-10T15:37:16.899Z,24.50
2019-06-10T15:40:19.782Z,24.50
2019-06-10T15:43:23.906Z,24.40
2019-06-10T15:46:33.059Z,24.30
2019-06-10T15:49:37.452Z,24.00
2019-06-10T15:52:43.040Z,23.90
2019-06-10T15:56:12.213Z,23.90
2019-06-10T15:58:56.145Z,23.90
2019-06-10T16:01:59.743Z,23.90
2019-06-10T16:05:04.029Z,23.80
2019-06-10T16:08:22.541Z,23.80
2019-06-10T16:11:27.258Z,23.70
2019-06-10T16:14:33.043Z,23.50
2019-06-10T16:17:36.122Z,23.40
2019-06-10T16:20:42.864Z,23.30
2019-06-10T16:23:46.605Z,23.10
2019-06-10T16:26:52.444Z,23.00
2019-06-10T16:29:55.370Z,22.90
2019-06-10T16:32:58.835Z,22.80
2019-06-10T16:36:02.892Z,22.80
2019-06-10T16:39:07.844Z,22.70
2019-06-10T16:42:12.294Z,22.60
2019-06-10T16:45:19.811Z,22.60
2019-06-10T16:48:23.553Z,22.60
2019-06-10T16:51:29.788Z,22.60
2019-06-10T16:54:42.955Z,22.50
2019-06-10T16:57:58.752Z,22.50
2019-06-10T17:00:53.985Z,22.50
2019-06-10T17:03:57.613Z,22.40
2019-06-10T17:07:02.143Z,22.40
2019-06-10T17:10:12.548Z,22.40
2019-06-10T17:13:16.892Z,22.30
2019-06-10T17:16:22.863Z,22.30
2019-06-10T17:19:27.382Z,22.30
2019-06-10T17:22:32.877Z,22.30
2019-06-10T17:25:35.993Z,22.40
2019-06-10T17:28:39.446Z,22.40
2019-06-10T17:31:43.006Z,22.30
2019-06-10T17:34:46.487Z,22.20
2019-06-10T17:37:52.187Z,22.10
2019-06-10T17:40:55.169Z,22.00
2019-06-10T17:43:58.713Z,21.90
2019-06-10T17:47:02.449Z,21.80
2019-06-10T17:50:07.532Z,21.70
2019-06-10T17:53:12.725Z,21.70
2019-06-10T17:56:16.268Z,21.60
2019-06-10T17:59:22.083Z,21.50
2019-06-10T18:02:25.901Z,21.50
2019-06-10T18:05:33.527Z,21.40
2019-06-10T18:08:40.640Z,21.40
2019-06-10T18:11:47.913Z,21.30
2019-06-10T18:14:54.789Z,21.30
2019-06-10T18:18:03.530Z,21.20
2019-06-10T18:21:06.568Z,21.10
2019-06-10T18:24:15.700Z,21.10
2019-06-10T18:27:21.906Z,21.10
2019-06-10T18:30:25.122Z,21.10
2019-06-10T18:34:06.424Z,21.00
2019-06-10T18:37:02.757Z,21.00
2019-06-10T18:40:10.129Z,21.00
2019-06-10T18:43:22.948Z,20.90
2019-06-10T18:46:27.967Z,20.90
2019-06-10T18:49:34.358Z,20.80
2019-06-10T18:52:37.045Z,20.90
2019-06-10T18:55:43.027Z,20.80
2019-06-10T18:58:47.351Z,20.80
2019-06-10T19:01:56.865Z,20.80
2019-06-10T19:05:02.661Z,20.80
2019-06-10T19:08:05.669Z,20.70
2019-06-10T19:11:09.708Z,20.70
2019-06-10T19:14:16.917Z,20.60
2019-06-10T19:17:25.237Z,20.50
2019-06-10T19:20:29.766Z,20.40
2019-06-10T19:23:36.334Z,20.30
2019-06-10T19:26:42.648Z,20.20
2019-06-10T19:29:51.956Z,20.10
2019-06-10T19:33:02.564Z,20.00
2019-06-10T19:36:05.661Z,20.00
2019-06-10T19:39:18.206Z,19.90
2019-06-10T19:45:49.026Z,19.90
2019-06-10T19:48:57.942Z,19.80
2019-06-10T19:58:32.648Z,19.50
2019-06-10T20:01:39.390Z,19.40
2019-06-10T20:04:52.934Z,19.40
2019-06-10T20:08:05.253Z,19.40
2019-06-10T20:11:12.399Z,19.30
2019-06-10T20:14:24.163Z,19.30
2019-06-10T20:17:28.940Z,19.30
2019-06-10T20:21:06.632Z,19.30
2019-06-10T20:24:12.450Z,19.30
2019-06-10T20:27:18.992Z,19.30
2019-06-10T20:30:28.285Z,19.30
2019-06-10T20:37:06.927Z,19.00
2019-06-10T20:40:11.253Z,18.90
2019-06-10T20:43:29.036Z,18.90
2019-06-10T20:46:28.384Z,18.90
2019-06-10T20:49:32.555Z,18.90
2019-06-10T20:52:36.329Z,19.10
2019-06-10T20:55:49.465Z,19.20
2019-06-10T20:58:49.697Z,19.20
2019-06-10T21:01:54.600Z,19.20
2019-06-10T21:05:02.691Z,19.30
2019-06-10T21:08:06.514Z,19.30
2019-06-10T21:11:12.765Z,19.40
2019-06-10T21:14:17.177Z,19.40
2019-06-10T21:17:22.804Z,19.30
2019-06-10T21:20:26.440Z,19.30
2019-06-10T21:23:54.090Z,19.20
2019-06-10T21:27:05.081Z,19.20
2019-06-10T21:30:41.770Z,19.20
2019-06-10T21:33:43.850Z,19.10
2019-06-10T21:36:52.755Z,19.00
2019-06-10T21:39:55.688Z,18.90
2019-06-10T21:42:59.961Z,18.80
2019-06-10T21:46:04.016Z,18.80
2019-06-10T21:49:07.677Z,18.70
2019-06-10T21:52:19.604Z,18.70
2019-06-10T21:56:14.650Z,18.60
2019-06-10T21:58:51.516Z,18.50
2019-06-10T22:01:55.058Z,18.40
2019-06-10T22:04:58.542Z,18.30
2019-06-10T22:08:03.118Z,18.30
2019-06-10T22:11:06.875Z,18.20
2019-06-10T22:14:12.079Z,18.10
2019-06-10T22:17:15.760Z,17.90
2019-06-10T22:20:19.512Z,17.80
2019-06-10T22:23:23.357Z,17.70
2019-06-10T22:26:27.033Z,17.50
2019-06-10T22:29:32.242Z,17.40
2019-06-10T22:32:35.848Z,17.30
2019-06-10T22:35:39.304Z,17.30
2019-06-10T22:38:42.788Z,17.40
2019-06-10T22:41:46.954Z,17.40
2019-06-10T22:44:52.902Z,17.40
2019-06-10T22:47:56.907Z,17.40
2019-06-10T22:51:00.477Z,17.50
2019-06-10T22:54:04.120Z,17.50
2019-06-10T22:57:07.576Z,17.50
2019-06-10T23:00:13.135Z,17.40
2019-06-10T23:03:16.647Z,17.40
2019-06-10T23:06:20.198Z,17.40
2019-06-10T23:09:23.649Z,17.20
2019-06-10T23:12:27.197Z,17.20
2019-06-10T23:15:32.284Z,17.20
2019-06-10T23:18:35.901Z,17.20
2019-06-10T23:21:39.400Z,17.30
2019-06-10T23:24:42.924Z,17.30
2019-06-10T23:27:46.417Z,17.40
2019-06-10T23:30:50.064Z,17.50
2019-06-10T23:33:56.379Z,17.50
2019-06-10T23:37:00.305Z,17.40
2019-06-10T23:40:04.733Z,17.30
2019-06-10T23:43:08.360Z,17.20
2019-06-10T23:46:12.186Z,17.20
2019-06-10T23:49:15.677Z,17.20
2019-06-10T23:52:19.243Z,17.10
2019-06-10T23:55:22.957Z,17.00
2019-06-10T23:58:26.561Z,16.90
